Time;durP1;ratioP1;P1;durP2;ratioP2;P2;SDS_P1;SDS_P2;PMS_P1;PMS_P2;Temp;Humidity;BMP_temperature;BMP_pressure;BME280_temperature;BME280_humidity;BME280_pressure;Samples;Min_cycle;Max_cycle;Signal;HPM_P1;HPM_P2
2021/04/30 00:02:20;;;;;;;9.13;6.50;;;;;;;13.70;59.59;99985.22;5051111;28;20041;-22
2021/04/30 00:04:45;;;;;;;10.13;7.30;;;;;;;13.43;60.28;99993.84;5050363;28;20473;-22
2021/04/30 00:07:11;;;;;;;11.13;7.07;;;;;;;13.09;61.57;99982.19;5050600;28;20025;-22
2021/04/30 00:09:36;;;;;;;13.70;7.32;;;;;;;12.73;63.33;99976.06;5050625;28;20044;-22
2021/04/30 00:12:02;;;;;;;12.00;7.95;;;;;;;12.52;63.56;99962.25;5050756;28;20033;-21
2021/04/30 00:14:28;;;;;;;11.88;7.47;;;;;;;12.70;62.79;99937.22;5050667;28;20044;-21
2021/04/30 00:16:53;;;;;;;10.45;7.32;;;;;;;13.24;61.20;99940.44;5050718;28;20067;-22
2021/04/30 00:19:19;;;;;;;11.68;7.25;;;;;;;12.74;62.38;99942.94;5050250;28;20037;-22
2021/04/30 00:21:45;;;;;;;12.82;7.38;;;;;;;12.69;62.71;99949.00;5050513;28;20120;-21
2021/04/30 00:24:11;;;;;;;12.50;7.80;;;;;;;12.80;62.74;99958.84;5049295;28;20456;-22
2021/04/30 00:26:37;;;;;;;10.45;7.40;;;;;;;12.32;63.82;99959.97;5049047;28;20025;-22
2021/04/30 00:29:03;;;;;;;12.48;7.65;;;;;;;12.44;63.68;99968.78;5050240;28;20074;-22
2021/04/30 00:31:28;;;;;;;14.52;7.88;;;;;;;12.54;63.23;99970.06;5050091;28;20033;-21
2021/04/30 00:33:54;;;;;;;11.63;7.18;;;;;;;12.50;63.36;99966.22;5050294;28;20054;-22
2021/04/30 00:36:19;;;;;;;13.25;7.70;;;;;;;12.20;64.00;99965.31;5050169;28;20440;-22
2021/04/30 00:38:45;;;;;;;13.60;7.85;;;;;;;11.92;65.18;99976.66;5050511;28;20029;-21
2021/04/30 00:41:10;;;;;;;13.65;8.82;;;;;;;12.19;64.24;99963.66;5050103;28;20477;-22
2021/04/30 00:43:36;;;;;;;14.85;8.82;;;;;;;12.63;62.99;99968.66;5049993;28;20029;-22
2021/04/30 00:46:01;;;;;;;15.52;8.98;;;;;;;12.36;63.64;99966.47;5049898;28;20408;-21
2021/04/30 00:48:27;;;;;;;12.38;7.75;;;;;;;12.29;64.67;99962.28;5049625;28;20044;-21
2021/04/30 00:50:53;;;;;;;13.38;8.50;;;;;;;12.27;64.13;99957.16;5050045;28;20029;-25
2021/04/30 00:53:19;;;;;;;13.82;8.80;;;;;;;11.95;65.41;99944.13;5050215;28;20037;-22
2021/04/30 00:55:44;;;;;;;16.38;8.63;;;;;;;12.13;65.22;99959.25;5049920;28;20029;-22
2021/04/30 00:58:10;;;;;;;14.55;9.73;;;;;;;12.15;65.44;99942.97;5048664;28;20044;-21
2021/04/30 01:00:36;;;;;;;21.73;9.57;;;;;;;12.18;64.88;99918.47;5049199;28;20040;-21
2021/04/30 01:03:02;;;;;;;13.75;8.13;;;;;;;12.27;64.17;99903.69;5049715;28;20028;-21
2021/04/30 01:05:27;;;;;;;16.88;7.95;;;;;;;12.16;65.28;99912.53;5049734;28;20279;-22
2021/04/30 01:07:53;;;;;;;17.00;8.32;;;;;;;11.99;65.87;99913.25;5049645;28;20028;-22
2021/04/30 01:10:19;;;;;;;14.57;8.57;;;;;;;11.82;66.10;99898.88;5049513;28;20036;-22
2021/04/30 01:12:44;;;;;;;13.43;7.85;;;;;;;11.95;65.36;99890.69;5049607;28;20489;-22
2021/04/30 01:15:11;;;;;;;13.85;7.68;;;;;;;12.22;65.36;99906.25;5049281;28;20029;-21
2021/04/30 01:17:37;;;;;;;14.00;8.32;;;;;;;12.14;65.14;99901.25;5049383;28;20032;-22
2021/04/30 01:20:04;;;;;;;11.25;7.30;;;;;;;12.29;64.63;99933.69;5049310;28;20421;-22
2021/04/30 01:22:39;;;;;;;13.27;7.53;;;;;;;12.58;64.03;99945.25;5049591;28;20032;-22
2021/04/30 01:25:07;;;;;;;12.85;8.60;;;;;;;12.36;64.48;99937.06;5049206;28;20032;-22
2021/04/30 01:27:33;;;;;;;12.15;8.25;;;;;;;12.56;63.46;99933.19;5049031;28;20112;-21
2021/04/30 01:29:58;;;;;;;11.80;7.88;;;;;;;13.02;62.67;99958.22;5049132;28;20710;-22
2021/04/30 01:32:24;;;;;;;12.63;7.57;;;;;;;13.63;60.73;99958.59;5049090;28;20056;-22
2021/04/30 01:34:49;;;;;;;10.70;7.85;;;;;;;13.77;59.36;99964.44;5047600;28;20181;-21
2021/04/30 01:37:15;;;;;;;15.75;9.10;;;;;;;13.65;59.73;99935.84;5049028;28;20025;-21
2021/04/30 01:39:40;;;;;;;12.88;8.15;;;;;;;13.57;60.16;99955.00;5049016;28;20036;-22
2021/04/30 01:42:06;;;;;;;12.95;8.02;;;;;;;13.33;61.54;99964.19;5049228;28;20040;-22
2021/04/30 01:44:32;;;;;;;13.07;8.32;;;;;;;13.53;61.00;99961.09;5048335;28;20029;-21
2021/04/30 01:47:00;;;;;;;14.32;8.32;;;;;;;14.14;59.29;99974.66;5048707;28;20043;-22
2021/04/30 01:49:26;;;;;;;13.90;8.43;;;;;;;14.46;58.27;99980.25;5048576;28;20057;-22
2021/04/30 01:51:52;;;;;;;12.98;8.05;;;;;;;14.50;57.61;99981.38;5048726;28;20416;-22
2021/04/30 01:54:17;;;;;;;14.27;8.02;;;;;;;14.17;58.59;99960.78;5048781;28;20039;-22
2021/04/30 01:56:43;;;;;;;12.18;7.88;;;;;;;14.00;59.58;99984.94;5048340;28;20025;-22
2021/04/30 01:59:08;;;;;;;12.48;8.27;;;;;;;13.91;60.13;99981.81;5048515;28;20060;-21
2021/04/30 02:01:34;;;;;;;14.25;8.55;;;;;;;13.85;59.91;99972.06;5047443;28;20492;-21
2021/04/30 02:03:59;;;;;;;13.38;8.07;;;;;;;13.51;61.49;99974.72;5048819;28;20095;-22
2021/04/30 02:06:25;;;;;;;12.68;8.43;;;;;;;13.88;61.03;99992.25;5048491;28;20028;-22
2021/04/30 02:08:51;;;;;;;13.00;8.98;;;;;;;14.17;59.35;99985.72;5048166;28;20094;-21
2021/04/30 02:11:17;;;;;;;16.30;9.15;;;;;;;14.32;59.06;99977.09;5048108;28;20459;-21
2021/04/30 02:13:42;;;;;;;14.93;8.63;;;;;;;14.09;59.42;99990.69;5048648;28;20467;-21
2021/04/30 02:16:08;;;;;;;11.82;7.85;;;;;;;13.53;62.33;99986.00;5048323;28;20447;-22
2021/04/30 02:18:34;;;;;;;12.18;8.55;;;;;;;13.08;62.76;99957.28;5048134;28;20032;-22
2021/04/30 02:20:59;;;;;;;13.07;8.05;;;;;;;13.00;64.19;99984.41;5048060;28;20040;-22
2021/04/30 02:23:25;;;;;;;12.60;8.52;;;;;;;12.44;65.96;99957.25;5048164;28;20033;-22
2021/04/30 02:25:50;;;;;;;13.50;8.25;;;;;;;12.56;65.44;99965.28;5047965;28;20447;-22
2021/04/30 02:28:16;;;;;;;12.20;8.55;;;;;;;13.31;62.73;99982.38;5047972;28;20063;-24
2021/04/30 02:30:42;;;;;;;12.23;8.07;;;;;;;13.59;61.32;99960.13;5047865;28;20039;-22
2021/04/30 02:33:08;;;;;;;15.95;9.60;;;;;;;13.02;63.52;99953.69;5048028;28;20039;-22
2021/04/30 02:35:36;;;;;;;14.45;8.52;;;;;;;12.58;65.91;99953.28;5047861;28;20119;-21
2021/04/30 02:38:02;;;;;;;14.60;8.70;;;;;;;12.58;65.18;99953.28;5046564;28;20017;-22
2021/04/30 02:40:29;;;;;;;12.05;8.60;;;;;;;12.55;65.80;99966.34;5047713;28;20489;-22
2021/04/30 02:42:56;;;;;;;15.77;9.00;;;;;;;12.65;65.63;99978.06;5047595;28;20037;-21
2021/04/30 02:45:21;;;;;;;15.35;8.65;;;;;;;13.13;63.84;100002.06;5047696;28;20119;-22
2021/04/30 02:47:48;;;;;;;13.45;8.70;;;;;;;13.05;63.45;99984.50;5047901;28;20100;-21
2021/04/30 02:50:18;;;;;;;14.02;8.32;;;;;;;12.86;65.18;100003.41;5046163;28;20057;-20
2021/04/30 02:52:44;;;;;;;16.35;9.43;;;;;;;12.89;64.92;100012.00;5047429;28;20517;-22
2021/04/30 02:55:12;;;;;;;15.93;9.73;;;;;;;12.64;65.58;99986.31;5047455;28;20091;-22
2021/04/30 02:57:37;;;;;;;13.52;8.70;;;;;;;13.11;63.50;100004.97;5047575;28;20040;-22
2021/04/30 03:00:04;;;;;;;19.60;9.63;;;;;;;13.34;63.02;100003.31;5046069;28;20041;-21
2021/04/30 03:02:30;;;;;;;16.13;8.93;;;;;;;13.48;62.49;100014.56;5047598;28;20029;-22
2021/04/30 03:04:55;;;;;;;15.75;8.98;;;;;;;13.97;60.57;100009.53;5047289;28;20040;-21
2021/04/30 03:07:21;;;;;;;12.88;8.57;;;;;;;14.13;59.68;100000.69;5047553;28;20033;-22
2021/04/30 03:09:46;;;;;;;15.82;9.57;;;;;;;13.67;61.98;100032.09;5047338;28;20037;-22
2021/04/30 03:12:12;;;;;;;13.45;8.20;;;;;;;14.04;60.76;100023.63;5047327;28;20029;-21
2021/04/30 03:14:37;;;;;;;13.50;9.00;;;;;;;14.23;59.43;100021.50;5047308;28;20036;-21
2021/04/30 03:17:03;;;;;;;16.75;9.70;;;;;;;14.07;60.04;100018.56;5047324;28;20040;-22
2021/04/30 03:19:28;;;;;;;13.75;8.68;;;;;;;13.98;60.76;100033.44;5047277;28;20130;-22
2021/04/30 03:21:53;;;;;;;13.45;8.45;;;;;;;13.99;60.29;100016.28;5047167;28;20039;-21
2021/04/30 03:24:19;;;;;;;15.10;9.05;;;;;;;13.59;61.82;100021.75;5045969;28;20409;-21
2021/04/30 03:26:44;;;;;;;16.70;9.77;;;;;;;13.53;61.95;100026.19;5046858;28;20029;-22
2021/04/30 03:29:10;;;;;;;14.15;9.23;;;;;;;13.61;62.31;100047.25;5047011;28;20115;-21
2021/04/30 03:31:35;;;;;;;15.52;8.98;;;;;;;13.99;60.69;100029.69;5047215;28;20029;-22
2021/04/30 03:34:01;;;;;;;14.20;8.77;;;;;;;13.69;62.37;100054.09;5045874;28;20029;-22
2021/04/30 03:36:26;;;;;;;18.30;9.00;;;;;;;13.45;62.04;100042.66;5047079;28;20040;-21
2021/04/30 03:38:52;;;;;;;16.65;8.10;;;;;;;13.74;62.12;100056.03;5047159;28;20040;-21
2021/04/30 03:41:17;;;;;;;13.13;8.32;;;;;;;14.02;61.08;100055.22;5046970;28;20083;-22
2021/04/30 03:43:43;;;;;;;13.05;8.27;;;;;;;13.73;61.67;100054.41;5047111;28;20028;-21
2021/04/30 03:46:09;;;;;;;12.75;8.50;;;;;;;13.64;61.77;100038.72;5047020;28;20078;-21
2021/04/30 03:48:34;;;;;;;15.63;8.95;;;;;;;13.99;61.50;100047.63;5046817;28;20107;-22
2021/04/30 03:51:00;;;;;;;13.40;8.85;;;;;;;14.09;60.41;100047.00;5046866;28;20099;-22
2021/04/30 03:53:25;;;;;;;13.80;8.98;;;;;;;14.20;60.15;100048.78;5046879;28;20416;-21
2021/04/30 03:55:51;;;;;;;14.82;8.98;;;;;;;14.21;59.85;100056.59;5046586;28;20120;-22
2021/04/30 03:58:17;;;;;;;14.73;9.20;;;;;;;14.14;60.38;100055.13;5046930;28;20068;-22
2021/04/30 04:00:42;;;;;;;14.77;8.68;;;;;;;14.21;60.42;100053.13;5046305;28;20386;-22
2021/04/30 04:03:08;;;;;;;12.93;9.18;;;;;;;14.14;61.27;100084.63;5046873;28;20044;-22
2021/04/30 04:05:33;;;;;;;14.15;9.65;;;;;;;14.10;61.53;100067.38;5046778;28;20056;-22
2021/04/30 04:07:59;;;;;;;15.02;9.32;;;;;;;14.33;60.23;100061.91;5046667;28;20040;-21
2021/04/30 04:10:24;;;;;;;11.52;8.52;;;;;;;14.68;59.75;100062.72;5046446;28;20033;-21
2021/04/30 04:12:50;;;;;;;14.38;10.35;;;;;;;14.12;60.86;100046.50;5046446;28;20037;-21
2021/04/30 04:15:16;;;;;;;13.85;10.07;;;;;;;14.57;59.89;100057.22;5047106;28;20079;-21
2021/04/30 04:17:42;;;;;;;16.13;9.43;;;;;;;14.30;59.96;100048.16;5047201;28;20118;-22
2021/04/30 04:20:08;;;;;;;15.70;9.57;;;;;;;14.31;60.08;100049.78;5046617;28;20116;-21
2021/04/30 04:22:33;;;;;;;13.20;9.32;;;;;;;14.82;58.82;100064.81;5046336;28;20123;-22
2021/04/30 04:24:59;;;;;;;16.40;9.40;;;;;;;14.77;59.18;100072.81;5046427;28;20594;-21
2021/04/30 04:27:24;;;;;;;14.38;8.90;;;;;;;14.85;59.77;100083.13;5046580;28;20961;-22
2021/04/30 04:29:50;;;;;;;13.50;8.95;;;;;;;14.89;59.29;100077.25;5046595;28;20032;-22
2021/04/30 04:32:15;;;;;;;14.23;8.90;;;;;;;15.07;58.47;100083.13;5046562;28;20036;-22
2021/04/30 04:34:41;;;;;;;15.55;9.43;;;;;;;15.19;58.17;100074.97;5047721;28;20029;-22
2021/04/30 04:37:06;;;;;;;15.40;9.48;;;;;;;15.29;58.66;100085.06;5050042;28;20456;-23
2021/04/30 04:39:32;;;;;;;14.10;8.93;;;;;;;15.33;57.61;100080.00;5049955;28;20029;-21
2021/04/30 04:42:07;;;;;;;12.63;8.38;;;;;;;15.60;56.79;100067.41;5049985;28;20033;-21
2021/04/30 04:44:33;;;;;;;12.98;9.43;;;;;;;15.72;56.14;100093.34;5049897;28;20086;-21
2021/04/30 04:46:58;;;;;;;13.35;9.23;;;;;;;15.26;57.10;100094.44;5050166;28;20028;-21
2021/04/30 04:49:24;;;;;;;12.32;8.55;;;;;;;15.77;55.79;100099.63;5049651;28;20505;-22
2021/04/30 04:51:49;;;;;;;16.15;8.85;;;;;;;15.57;56.00;100105.56;5049783;28;20052;-22
2021/04/30 04:54:15;;;;;;;21.15;9.63;;;;;;;15.41;56.41;100106.44;5049641;28;20029;-21
2021/04/30 04:56:41;;;;;;;15.38;9.02;;;;;;;15.50;57.19;100107.59;5049466;28;20036;-23
2021/04/30 04:59:06;;;;;;;16.70;11.20;;;;;;;14.84;58.00;100084.19;5049611;28;20466;-21
2021/04/30 05:01:32;;;;;;;16.38;9.30;;;;;;;14.62;58.50;100089.47;5049796;28;20567;-22
2021/04/30 05:03:57;;;;;;;14.45;9.88;;;;;;;15.12;57.74;100120.03;5049635;28;20025;-22
2021/04/30 05:06:23;;;;;;;17.20;12.50;;;;;;;15.44;57.47;100105.91;5049704;28;20428;-21
2021/04/30 05:08:48;;;;;;;17.08;10.13;;;;;;;16.05;56.00;100117.38;5049535;28;20037;-22
2021/04/30 05:11:14;;;;;;;14.90;9.75;;;;;;;16.37;54.68;100111.22;5049454;28;20036;-21
2021/04/30 05:13:39;;;;;;;13.38;9.10;;;;;;;16.35;54.52;100129.50;5049442;28;20052;-21
2021/04/30 05:16:06;;;;;;;24.25;10.95;;;;;;;16.41;55.78;100133.06;5049595;28;20477;-21
2021/04/30 05:18:31;;;;;;;14.98;9.95;;;;;;;16.44;55.18;100141.44;5049471;28;20040;-22
2021/04/30 05:20:57;;;;;;;16.10;9.73;;;;;;;16.54;55.70;100145.28;5049411;28;20030;-22
2021/04/30 05:23:22;;;;;;;15.30;10.20;;;;;;;16.56;55.09;100143.16;5049205;28;20106;-22
2021/04/30 05:25:48;;;;;;;17.83;9.80;;;;;;;16.53;54.60;100130.19;5031460;28;20037;-22
2021/04/30 05:28:14;;;;;;;17.00;10.43;;;;;;;16.71;54.73;100129.00;5049331;28;20083;-22
2021/04/30 05:30:40;;;;;;;18.13;11.02;;;;;;;16.76;54.40;100132.53;5047856;28;20561;-22
2021/04/30 05:33:05;;;;;;;15.35;10.43;;;;;;;16.09;56.14;100124.97;5049218;28;20036;-22
2021/04/30 05:35:31;;;;;;;18.05;10.82;;;;;;;16.03;57.05;100130.28;5049171;28;20080;-21
2021/04/30 05:37:57;;;;;;;15.27;10.75;;;;;;;16.37;56.27;100143.53;5048972;28;20473;-22
2021/04/30 05:40:22;;;;;;;16.90;10.75;;;;;;;15.95;56.75;100138.78;5048986;28;20021;-22
2021/04/30 05:42:48;;;;;;;15.30;10.32;;;;;;;16.06;57.77;100135.16;5048740;28;20048;-22
2021/04/30 05:45:14;;;;;;;56.40;12.50;;;;;;;16.40;56.62;100143.00;5048906;28;20025;-21
2021/04/30 05:47:39;;;;;;;15.13;9.43;;;;;;;16.64;55.39;100156.13;5048234;28;20083;-21
2021/04/30 05:50:05;;;;;;;15.20;10.63;;;;;;;16.40;56.65;100161.03;5048540;28;20502;-22
2021/04/30 05:52:31;;;;;;;15.68;10.20;;;;;;;16.32;57.00;100170.38;5048339;28;20102;-19
2021/04/30 05:54:57;;;;;;;17.17;10.07;;;;;;;16.44;57.79;100156.78;5048668;28;20428;-20
2021/04/30 05:57:22;;;;;;;14.88;10.10;;;;;;;16.46;56.56;100155.44;5048934;28;20076;-21
2021/04/30 05:59:47;;;;;;;11.82;9.00;;;;;;;16.34;57.00;100145.91;5048694;28;20037;-21
2021/04/30 06:02:13;;;;;;;16.75;9.98;;;;;;;16.70;56.84;100152.41;5048542;28;20040;-21
2021/04/30 06:04:38;;;;;;;12.70;9.40;;;;;;;16.95;56.77;100157.22;5048206;28;20473;-22
2021/04/30 06:07:04;;;;;;;15.80;9.68;;;;;;;17.12;56.41;100162.47;5048281;28;20055;-21
2021/04/30 06:09:29;;;;;;;14.90;9.55;;;;;;;17.20;57.65;100145.81;5048604;28;20498;-22
2021/04/30 06:11:55;;;;;;;16.52;9.63;;;;;;;17.64;55.04;100158.94;5047375;28;20040;-21
2021/04/30 06:14:21;;;;;;;15.68;9.10;;;;;;;17.58;55.25;100157.31;5048326;28;20040;-21
2021/04/30 06:16:47;;;;;;;17.48;10.63;;;;;;;17.54;57.21;100153.50;5046861;28;20052;-21
2021/04/30 06:19:12;;;;;;;14.65;9.27;;;;;;;17.92;54.61;100148.84;5048380;28;20109;-21
2021/04/30 06:21:38;;;;;;;14.23;9.98;;;;;;;18.14;54.63;100155.88;5047903;28;20037;-20
2021/04/30 06:24:04;;;;;;;25.77;13.05;;;;;;;18.41;54.12;100156.47;5048384;28;20029;-22
2021/04/30 06:26:30;;;;;;;15.43;10.25;;;;;;;18.46;54.65;100159.16;5048330;28;20025;-22
2021/04/30 06:28:55;;;;;;;18.25;9.90;;;;;;;18.70;54.22;100157.84;5047965;28;20036;-22
2021/04/30 06:31:21;;;;;;;17.58;10.13;;;;;;;18.66;53.90;100141.38;5047977;28;20033;-21
2021/04/30 06:33:46;;;;;;;18.00;10.90;;;;;;;19.24;52.85;100151.84;5048007;28;20044;-21
2021/04/30 06:36:12;;;;;;;18.77;11.50;;;;;;;19.07;53.35;100152.97;5048012;28;20037;-22
2021/04/30 06:38:37;;;;;;;16.40;11.05;;;;;;;18.46;55.19;100150.28;5047954;28;20032;-22
2021/04/30 06:41:03;;;;;;;16.52;9.60;;;;;;;18.41;54.11;100123.28;5047873;28;20040;-22
2021/04/30 06:43:28;;;;;;;16.88;10.35;;;;;;;19.30;54.04;100145.34;5047851;28;20419;-22
2021/04/30 06:45:54;;;;;;;15.13;10.60;;;;;;;19.66;51.91;100132.50;5047666;28;20025;-22
2021/04/30 06:48:19;;;;;;;20.83;12.68;;;;;;;19.76;51.60;100136.28;5047542;28;20448;-22
2021/04/30 06:50:45;;;;;;;20.33;12.75;;;;;;;19.94;51.57;100132.13;5047622;28;20059;-22
2021/04/30 06:53:10;;;;;;;19.27;11.05;;;;;;;20.23;52.29;100130.31;5047547;28;20045;-22
2021/04/30 06:55:35;;;;;;;19.02;11.93;;;;;;;20.62;51.26;100136.81;5047486;28;20386;-21
2021/04/30 06:58:01;;;;;;;18.95;12.32;;;;;;;20.33;53.02;100150.28;5047626;28;20114;-22
2021/04/30 07:00:26;;;;;;;21.92;11.18;;;;;;;19.76;53.57;100130.88;5047434;28;20024;-22
2021/04/30 07:02:52;;;;;;;20.70;12.20;;;;;;;20.17;53.99;100141.47;5047171;28;20033;-22
2021/04/30 07:05:17;;;;;;;17.27;11.23;;;;;;;19.91;53.75;100135.41;5047293;28;20033;-21
2021/04/30 07:07:43;;;;;;;18.17;11.85;;;;;;;20.56;52.39;100137.94;5047300;28;20040;-22
2021/04/30 07:10:09;;;;;;;19.45;12.80;;;;;;;20.33;52.18;100110.47;5047269;28;20033;-22
2021/04/30 07:12:37;;;;;;;22.88;15.02;;;;;;;20.43;53.79;100123.09;5045770;28;20485;-21
2021/04/30 07:15:04;;;;;;;21.58;13.98;;;;;;;20.47;51.71;100130.41;5047306;28;20066;-21
2021/04/30 07:17:30;;;;;;;23.17;16.02;;;;;;;20.48;52.71;100121.19;5047415;28;20037;-21
2021/04/30 07:19:56;;;;;;;24.50;15.57;;;;;;;20.10;53.41;100119.31;5046872;28;20044;-21
2021/04/30 07:22:21;;;;;;;26.50;19.83;;;;;;;20.11;53.71;100129.84;5046964;28;20056;-22
2021/04/30 07:24:47;;;;;;;23.35;19.38;;;;;;;20.12;54.37;100117.91;5046940;28;20032;-21
2021/04/30 07:27:17;;;;;;;19.65;13.43;;;;;;;20.42;52.13;100127.72;5047021;28;20029;-21
2021/04/30 07:29:42;;;;;;;22.13;14.77;;;;;;;20.47;51.79;100121.44;5047106;28;20111;-21
2021/04/30 07:32:07;;;;;;;19.83;15.90;;;;;;;20.16;52.18;100123.59;5046986;28;20029;-21
2021/04/30 07:34:33;;;;;;;21.08;13.93;;;;;;;20.31;52.92;100119.97;5046692;28;20025;-21
2021/04/30 07:36:58;;;;;;;22.33;13.80;;;;;;;20.37;51.88;100114.25;5046987;28;20114;-22
2021/04/30 07:39:24;;;;;;;21.25;16.00;;;;;;;20.36;53.93;100128.84;5047116;28;20501;-22
2021/04/30 07:41:49;;;;;;;16.75;13.15;;;;;;;20.76;52.25;100093.59;5046968;28;20478;-22
2021/04/30 07:44:15;;;;;;;20.10;12.02;;;;;;;20.95;50.73;100115.38;5046892;28;20029;-22
2021/04/30 07:46:40;;;;;;;17.48;12.35;;;;;;;20.98;51.00;100120.22;5047233;28;20474;-21
2021/04/30 07:49:06;;;;;;;19.45;12.02;;;;;;;20.97;52.12;100114.00;5046682;28;20041;-22
2021/04/30 07:51:31;;;;;;;19.42;12.55;;;;;;;21.01;50.66;100112.31;5047103;28;20044;-22
2021/04/30 07:53:57;;;;;;;16.73;11.77;;;;;;;21.51;51.02;100109.34;5047122;28;20029;-21
2021/04/30 07:56:22;;;;;;;19.05;12.18;;;;;;;21.57;48.63;100107.38;5047537;28;20036;-22
2021/04/30 07:58:47;;;;;;;22.55;14.38;;;;;;;21.77;49.52;100115.25;5047149;28;20037;-21
2021/04/30 08:01:13;;;;;;;22.75;15.57;;;;;;;21.83;49.15;100107.84;5046844;28;20032;-21
2021/04/30 08:03:39;;;;;;;17.15;11.80;;;;;;;22.13;48.82;100103.03;5046605;28;20091;-22
2021/04/30 08:06:04;;;;;;;23.38;12.68;;;;;;;22.54;47.90;100119.56;5046730;28;20083;-22
2021/04/30 08:08:30;;;;;;;18.40;11.02;;;;;;;22.69;47.33;100114.97;5047154;28;20036;-22
2021/04/30 08:10:55;;;;;;;15.77;11.85;;;;;;;22.88;48.43;100112.97;5049817;28;20033;-22
2021/04/30 08:13:21;;;;;;;22.42;13.35;;;;;;;22.85;49.17;100110.84;5050825;28;20036;-21
2021/04/30 08:15:46;;;;;;;19.63;11.88;;;;;;;22.75;47.50;100100.97;5050638;28;20416;-21
2021/04/30 08:18:12;;;;;;;16.55;11.35;;;;;;;22.50;47.50;100112.28;5050382;28;20069;-20
2021/04/30 08:20:38;;;;;;;18.88;12.13;;;;;;;22.98;46.83;100112.78;5050329;28;20047;-21
2021/04/30 08:23:04;;;;;;;21.17;12.35;;;;;;;23.41;47.40;100115.22;5050852;28;20033;-21
2021/04/30 08:25:29;;;;;;;15.95;11.13;;;;;;;23.35;46.36;100113.72;5050465;28;20025;-21
2021/04/30 08:27:55;;;;;;;23.08;12.00;;;;;;;23.18;46.10;100100.72;5050547;28;20064;-21
2021/04/30 08:30:20;;;;;;;23.85;12.68;;;;;;;23.18;47.33;100114.34;5050450;28;20036;-21
2021/04/30 08:32:46;;;;;;;17.70;11.88;;;;;;;23.19;47.57;100112.41;5050142;28;20074;-22
2021/04/30 08:35:11;;;;;;;20.40;13.50;;;;;;;23.09;48.75;100112.63;5050065;28;20099;-21
2021/04/30 08:37:37;;;;;;;18.50;12.27;;;;;;;23.24;47.64;100099.53;5050409;28;20036;-21
2021/04/30 08:40:05;;;;;;;19.02;12.82;;;;;;;23.47;45.70;100086.00;5050166;28;20025;-21
2021/04/30 08:42:31;;;;;;;19.35;12.18;;;;;;;23.98;44.41;100095.00;5050365;28;20259;-21
2021/04/30 08:44:56;;;;;;;18.85;12.10;;;;;;;23.93;43.58;100100.56;5032456;28;20033;-21
2021/04/30 08:47:21;;;;;;;19.23;11.57;;;;;;;23.93;44.02;100098.66;5049902;28;20032;-21
2021/04/30 08:49:48;;;;;;;15.70;10.63;;;;;;;23.68;46.28;100091.84;5049815;28;20151;-21
2021/04/30 08:52:15;;;;;;;57.15;16.73;;;;;;;24.14;46.92;100096.25;5049979;28;20044;-21
2021/04/30 08:54:41;;;;;;;17.95;11.18;;;;;;;24.61;46.00;100106.84;5049783;28;20052;-21
2021/04/30 08:57:09;;;;;;;52.85;14.65;;;;;;;24.27;45.02;100086.38;5049863;28;20033;-21
2021/04/30 08:59:34;;;;;;;;;;;;;;;24.56;43.56;100094.16;5050019;28;20036;-21
2021/04/30 09:02:00;;;;;;;18.42;10.82;;;;;;;24.63;44.49;100077.34;5049669;28;19913;-21
2021/04/30 09:04:25;;;;;;;16.77;9.90;;;;;;;24.36;44.17;100081.03;5049553;28;20032;-20
2021/04/30 09:06:51;;;;;;;18.88;10.02;;;;;;;24.42;43.85;100066.94;5048220;28;20500;-21
2021/04/30 09:09:17;;;;;;;16.02;9.93;;;;;;;24.77;44.06;100067.16;5049705;28;20024;-21
2021/04/30 09:11:43;;;;;;;17.23;10.70;;;;;;;24.71;46.01;100073.88;5049734;28;20643;-20
2021/04/30 09:14:29;;;;;;;16.75;11.20;;;;;;;25.41;43.74;100080.38;5049590;28;20135;-21
2021/04/30 09:17:13;;;;;;;17.17;10.40;;;;;;;25.77;41.72;100070.34;5049483;28;20032;-20
2021/04/30 09:19:51;;;;;;;16.08;9.68;;;;;;;25.84;40.94;100071.44;5049912;28;20025;-21
2021/04/30 09:22:28;;;;;;;16.23;10.15;;;;;;;25.18;43.28;100060.56;5049477;28;20058;-21
2021/04/30 09:24:54;;;;;;;19.27;10.68;;;;;;;25.48;41.70;100057.28;5049230;28;20024;-21
2021/04/30 09:27:35;;;;;;;16.08;8.63;;;;;;;25.83;40.22;100058.91;5049115;28;20064;-20
2021/04/30 09:30:23;;;;;;;17.17;9.45;;;;;;;26.25;42.04;100059.25;5048943;28;20487;-21
2021/04/30 09:33:14;;;;;;;15.60;8.55;;;;;;;26.20;41.00;100055.88;5048926;28;20466;-21
2021/04/30 09:35:40;;;;;;;16.45;9.98;;;;;;;26.33;39.87;100051.34;5047874;28;20454;-21
2021/04/30 09:38:24;;;;;;;14.88;9.90;;;;;;;26.79;39.04;100038.84;5049011;28;20107;-21
2021/04/30 09:41:08;;;;;;;17.42;9.52;;;;;;;26.94;41.50;100021.06;5048824;28;20033;-21
2021/04/30 09:43:53;;;;;;;22.48;8.40;;;;;;;28.05;37.81;100031.56;5049225;28;20861;-21
2021/04/30 09:46:33;;;;;;;12.43;7.38;;;;;;;28.47;35.66;100007.91;5048933;28;20040;-21
2021/04/30 09:49:02;;;;;;;13.40;7.35;;;;;;;29.25;34.30;100026.13;5048651;28;20057;-21
2021/04/30 09:51:40;;;;;;;14.43;7.68;;;;;;;28.99;35.93;100015.50;5048633;28;20516;-21
2021/04/30 09:54:16;;;;;;;13.82;7.47;;;;;;;29.30;34.84;100008.59;5048622;28;20037;-20
2021/04/30 09:56:41;;;;;;;14.45;6.25;;;;;;;29.42;34.37;99995.66;5048427;28;20063;-21
2021/04/30 09:59:07;;;;;;;13.10;5.63;;;;;;;30.02;30.97;99997.75;5048538;28;20040;-21
2021/04/30 10:01:32;;;;;;;15.05;6.07;;;;;;;30.11;32.51;100008.56;5048698;28;20029;-21
2021/04/30 10:03:58;;;;;;;9.55;5.70;;;;;;;30.48;31.10;100011.13;5047211;28;20055;-21
2021/04/30 10:06:23;;;;;;;13.80;5.63;;;;;;;30.53;30.99;99999.88;5030521;28;20032;-21
2021/04/30 10:09:05;;;;;;;12.27;5.50;;;;;;;31.09;29.24;100007.88;5048139;28;20045;-20
2021/04/30 10:11:32;;;;;;;8.07;4.10;;;;;;;31.36;26.72;99991.53;5048535;28;20047;-20
2021/04/30 10:13:58;;;;;;;11.90;4.18;;;;;;;31.50;27.55;99999.34;5048426;28;20064;-20
2021/04/30 10:16:23;;;;;;;9.40;4.40;;;;;;;31.57;27.54;100000.28;5047062;28;20032;-21
2021/04/30 10:18:49;;;;;;;11.45;4.90;;;;;;;31.88;27.15;99987.50;5048362;28;20515;-21
2021/04/30 10:21:15;;;;;;;10.88;4.03;;;;;;;31.05;29.06;99996.00;5046878;28;20052;-21
2021/04/30 10:23:43;;;;;;;10.77;4.65;;;;;;;30.99;28.34;99997.44;5046861;28;20035;-21
2021/04/30 10:26:08;;;;;;;14.73;4.68;;;;;;;30.90;30.79;99996.84;5046799;28;20025;-21
2021/04/30 10:28:34;;;;;;;11.25;4.78;;;;;;;31.10;29.51;99998.47;5046739;28;20032;-21
2021/04/30 10:31:06;;;;;;;10.55;4.72;;;;;;;31.31;28.63;99964.28;5046915;28;20501;-21
2021/04/30 10:34:01;;;;;;;9.85;4.10;;;;;;;31.59;28.37;99997.97;5048048;28;20037;-21
2021/04/30 10:36:31;;;;;;;9.68;4.15;;;;;;;31.08;27.92;99999.97;5042233;28;20413;-21
2021/04/30 10:38:57;;;;;;;12.55;4.78;;;;;;;30.81;30.06;100002.47;5048305;28;20032;-21
2021/04/30 10:41:35;;;;;;;14.13;3.80;;;;;;;30.12;28.52;99988.16;5047919;28;20116;-21
2021/04/30 10:44:16;;;;;;;10.40;3.80;;;;;;;30.01;30.39;99993.38;5047718;28;20315;-20
2021/04/30 10:46:43;;;;;;;10.50;4.03;;;;;;;30.46;28.59;99975.69;5047728;28;20448;-20
2021/04/30 10:49:15;;;;;;;9.95;3.85;;;;;;;30.74;31.00;99989.34;5047402;28;20052;-21
2021/04/30 10:51:40;;;;;;;8.63;3.83;;;;;;;31.64;26.07;99983.88;5047793;28;20098;-21
2021/04/30 10:54:25;;;;;;;12.63;3.78;;;;;;;31.77;26.00;99973.53;5047848;28;20481;-21
2021/04/30 10:57:03;;;;;;;11.77;3.65;;;;;;;31.58;26.72;99963.28;5047339;28;20060;-21
2021/04/30 10:59:41;;;;;;;10.35;4.35;;;;;;;31.85;25.96;99960.66;5047578;28;20124;-21
2021/04/30 11:02:19;;;;;;;13.07;4.13;;;;;;;31.54;27.31;99962.41;5047560;28;20512;-21
2021/04/30 11:05:03;;;;;;;9.43;3.78;;;;;;;31.30;26.12;99957.16;5047182;28;20118;-21
2021/04/30 11:07:50;;;;;;;10.43;3.45;;;;;;;31.37;27.31;99947.09;5047602;28;20033;-21
2021/04/30 11:10:22;;;;;;;9.95;3.83;;;;;;;31.77;26.21;99953.41;5047186;28;20159;-21
2021/04/30 11:13:18;;;;;;;12.02;3.92;;;;;;;31.29;25.73;99944.56;5047149;28;20029;-20
2021/04/30 11:15:43;;;;;;;15.98;6.72;;;;;;;31.85;28.21;99949.63;5046316;28;20029;-21
2021/04/30 11:18:09;;;;;;;10.55;3.90;;;;;;;32.42;25.20;99942.34;5047270;28;20036;-21